Time;durP1;ratioP1;P1;durP2;ratioP2;P2;SDS_P1;SDS_P2;PMS_P1;PMS_P2;Temp;Humidity;BMP_temperature;BMP_pressure;BME280_temperature;BME280_humidity;BME280_pressure;Samples;Min_cycle;Max_cycle;Signal;HPM_P1;HPM_P2
2022/12/27 00:00:01;;;;;;;1999.90;999.90;;;4.80;99.90;;;;;;5070894;28;20520;-70
2022/12/27 00:02:28;;;;;;;1999.90;999.90;;;4.90;99.90;;;;;;5070812;28;20517;-70
2022/12/27 00:04:56;;;;;;;1999.90;999.90;;;4.90;99.90;;;;;;5084276;28;20461;-69
2022/12/27 00:07:22;;;;;;;1999.90;999.90;;;4.90;99.90;;;;;;5073544;28;20459;-70
2022/12/27 00:09:49;;;;;;;1999.90;999.90;;;4.90;99.90;;;;;;5084776;28;20463;-69
2022/12/27 00:12:16;;;;;;;1999.90;999.90;;;4.90;99.90;;;;;;5085918;28;20489;-69
2022/12/27 00:14:42;;;;;;;1999.90;999.90;;;5.00;99.90;;;;;;5075726;28;20510;-68
2022/12/27 00:17:09;;;;;;;1999.90;999.90;;;5.10;99.90;;;;;;5078193;28;20434;-70
2022/12/27 00:19:35;;;;;;;1999.90;999.90;;;5.20;99.90;;;;;;5077538;28;20482;-69
2022/12/27 00:22:04;;;;;;;1999.90;999.90;;;5.20;99.90;;;;;;5077572;28;20428;-70
2022/12/27 00:24:30;;;;;;;1999.90;999.90;;;5.30;99.90;;;;;;5075340;28;20422;-71
2022/12/27 00:26:57;;;;;;;1999.90;999.90;;;5.40;99.90;;;;;;5071327;28;20447;-70
2022/12/27 00:29:23;;;;;;;1999.90;999.90;;;5.40;99.90;;;;;;5070416;28;21350;-67
2022/12/27 00:31:50;;;;;;;1999.90;999.90;;;5.40;99.90;;;;;;5071738;28;20422;-71
2022/12/27 00:34:17;;;;;;;1999.90;999.90;;;5.60;99.90;;;;;;5075461;28;20500;-70
2022/12/27 00:36:43;;;;;;;1999.90;999.90;;;5.40;99.90;;;;;;5071240;28;20429;-68
2022/12/27 00:39:11;;;;;;;1999.90;999.90;;;5.40;99.90;;;;;;5070682;28;20795;-70
2022/12/27 00:41:38;;;;;;;1999.90;999.90;;;5.30;99.90;;;;;;5077867;28;20584;-69
2022/12/27 00:44:05;;;;;;;1999.90;999.90;;;5.70;99.90;;;;;;5070806;28;20423;-69
2022/12/27 00:46:31;;;;;;;1999.90;999.90;;;5.70;99.90;;;;;;5072987;28;20489;-71
2022/12/27 00:48:58;;;;;;;1999.90;999.90;;;5.30;99.90;;;;;;5081879;28;20453;-70
2022/12/27 00:51:25;;;;;;;1999.90;999.90;;;5.30;99.90;;;;;;5073563;28;20461;-69
2022/12/27 00:53:53;;;;;;;1999.90;999.90;;;5.20;99.90;;;;;;5073667;28;20549;-69
2022/12/27 00:56:23;;;;;;;1999.90;999.90;;;5.20;99.90;;;;;;5085160;28;20913;-71
2022/12/27 00:58:53;;;;;;;1999.90;999.90;;;5.10;99.90;;;;;;5083925;28;20426;-68
2022/12/27 01:01:22;;;;;;;1999.90;999.90;;;5.10;99.90;;;;;;5077898;28;20430;-70
2022/12/27 01:03:48;;;;;;;1999.90;999.90;;;5.10;99.90;;;;;;5076377;28;20425;-70
2022/12/27 01:06:17;;;;;;;1999.90;999.90;;;5.10;99.90;;;;;;5080417;28;21005;-70
2022/12/27 01:08:45;;;;;;;1999.90;999.90;;;5.00;99.90;;;;;;5075803;28;20874;-70
2022/12/27 01:11:14;;;;;;;1999.90;999.90;;;5.30;99.90;;;;;;5079775;28;20426;-70
2022/12/27 01:13:43;;;;;;;1999.90;999.90;;;4.90;99.90;;;;;;5079102;28;20613;-72
2022/12/27 01:16:11;;;;;;;1999.90;999.90;;;4.90;99.90;;;;;;5084236;28;20967;-70
2022/12/27 01:18:38;;;;;;;1999.90;999.90;;;4.90;99.90;;;;;;5075924;28;20469;-70
2022/12/27 01:21:06;;;;;;;1999.90;999.90;;;4.90;99.90;;;;;;5085166;28;20427;-69
2022/12/27 01:23:33;;;;;;;1999.90;999.90;;;4.90;99.90;;;;;;5086800;28;20429;-69
2022/12/27 01:26:00;;;;;;;1999.90;999.90;;;4.80;99.90;;;;;;5088163;28;20935;-69
2022/12/27 01:28:27;;;;;;;1999.90;999.90;;;4.80;99.90;;;;;;5083684;28;20484;-69
2022/12/27 01:30:55;;;;;;;1999.90;999.90;;;4.80;99.90;;;;;;5077824;28;20515;-70
2022/12/27 01:33:22;;;;;;;1999.90;999.90;;;4.80;99.90;;;;;;5084589;28;20487;-71
2022/12/27 01:35:48;;;;;;;1999.90;999.90;;;4.80;99.90;;;;;;5087844;28;20494;-69
2022/12/27 01:38:15;;;;;;;1999.90;999.90;;;4.80;99.90;;;;;;5080241;28;20462;-71
2022/12/27 01:40:41;;;;;;;1999.90;999.90;;;5.30;99.90;;;;;;5081999;28;20471;-70
2022/12/27 01:43:15;;;;;;;1999.90;999.90;;;4.80;99.90;;;;;;5089887;28;20429;-70
2022/12/27 01:45:42;;;;;;;1999.90;999.90;;;4.80;99.90;;;;;;5075971;28;20460;-70
2022/12/27 01:48:15;;;;;;;1999.90;999.90;;;5.10;99.90;;;;;;5089270;28;20429;-66
2022/12/27 01:50:44;;;;;;;1999.90;999.90;;;4.80;99.90;;;;;;5076666;28;20427;-71
2022/12/27 01:53:14;;;;;;;1999.90;999.90;;;4.80;99.90;;;;;;5075383;28;20556;-70
2022/12/27 01:55:47;;;;;;;1999.90;999.90;;;4.80;99.90;;;;;;5081780;28;20425;-70
2022/12/27 01:58:18;;;;;;;1999.90;999.90;;;4.80;99.90;;;;;;5079980;28;21039;-69
2022/12/27 02:00:48;;;;;;;1999.90;999.90;;;4.80;99.90;;;;;;5081966;28;20535;-66
2022/12/27 02:03:21;;;;;;;1999.90;999.90;;;4.80;99.90;;;;;;5084465;28;20485;-72
2022/12/27 02:05:49;;;;;;;1999.90;999.90;;;4.90;99.90;;;;;;5081452;28;20473;-70
2022/12/27 02:08:30;;;;;;;1999.90;999.90;;;5.30;99.90;;;;;;5081197;28;20464;-70
2022/12/27 02:10:58;;;;;;;1999.90;999.90;;;4.90;99.90;;;;;;5076102;28;20472;-69
2022/12/27 02:13:25;;;;;;;1999.90;999.90;;;4.90;99.90;;;;;;5081171;28;20435;-70
2022/12/27 02:15:52;;;;;;;1999.90;999.90;;;4.80;99.90;;;;;;5083556;28;20461;-70
2022/12/27 02:18:20;;;;;;;1999.90;999.90;;;4.80;99.90;;;;;;5088214;28;20793;-72
2022/12/27 02:21:34;;;;;;;1999.90;999.90;;;4.80;99.90;;;;;;5087048;28;20430;-70
2022/12/27 02:24:35;;;;;;;1999.90;999.90;;;4.90;99.90;;;;;;5023521;28;21006;-70
2022/12/27 02:27:06;;;;;;;1999.90;999.90;;;4.90;99.90;;;;;;5003184;28;20435;-69
2022/12/27 02:30:02;;;;;;;1999.90;999.90;;;4.90;99.90;;;;;;5074157;28;20797;-70
2022/12/27 02:32:35;;;;;;;1999.90;999.90;;;4.80;99.90;;;;;;5074686;28;20851;-71
2022/12/27 02:35:09;;;;;;;1999.90;999.90;;;4.80;99.90;;;;;;5075625;28;20503;-72
2022/12/27 02:37:41;;;;;;;1999.90;999.90;;;4.90;99.90;;;;;;5074960;28;20799;-70
2022/12/27 02:54:25;;;;;;;1999.90;999.90;;;4.60;99.90;;;;;;5083852;28;20429;-70
2022/12/27 02:57:07;;;;;;;1999.90;999.90;;;4.70;99.90;;;;;;5086745;28;20939;-70
2022/12/27 03:05:36;;;;;;;1999.90;999.90;;;4.70;99.90;;;;;;5084761;28;20940;-72
2022/12/27 03:08:10;;;;;;;1999.90;999.90;;;4.60;99.90;;;;;;5081023;28;20429;-69
2022/12/27 03:16:41;;;;;;;1999.90;999.90;;;4.60;99.90;;;;;;5022736;28;20469;-70
2022/12/27 03:19:12;;;;;;;1999.90;999.90;;;4.60;99.90;;;;;;5022000;28;20856;-69
2022/12/27 03:27:20;;;;;;;1999.90;999.90;;;4.70;99.90;;;;;;5075551;28;20472;-70
2022/12/27 03:35:33;;;;;;;1999.90;999.90;;;4.60;99.90;;;;;;5071242;28;20450;-72
2022/12/27 03:38:02;;;;;;;1999.90;999.90;;;4.70;99.90;;;;;;5074802;28;20471;-71
2022/12/27 03:43:09;;;;;;;1999.90;999.90;;;4.70;99.90;;;;;;5076321;28;20423;-71
2022/12/27 03:43:33;;;;;;;1999.90;999.90;;;4.70;99.90;;;;;;5076862;28;20420;-69
2022/12/27 03:49:07;;;;;;;1999.90;999.90;;;4.70;99.90;;;;;;5076422;28;20417;-69
2022/12/27 03:51:38;;;;;;;1999.90;999.90;;;4.70;99.90;;;;;;5082492;28;20475;-69
2022/12/27 03:54:10;;;;;;;1999.90;999.90;;;4.70;99.90;;;;;;5075763;28;20449;-69
2022/12/27 03:56:40;;;;;;;1999.90;999.90;;;4.70;99.90;;;;;;5083960;28;20998;-70
2022/12/27 03:59:08;;;;;;;1999.90;999.90;;;4.70;99.90;;;;;;5080198;28;20431;-69
2022/12/27 04:01:35;;;;;;;1999.90;999.90;;;4.70;99.90;;;;;;5081570;28;20431;-68
2022/12/27 04:04:01;;;;;;;1999.90;999.90;;;4.70;99.90;;;;;;5081653;28;20430;-69
2022/12/27 04:06:28;;;;;;;1999.90;999.90;;;4.70;99.90;;;;;;5081289;28;20453;-71
2022/12/27 04:36:18;;;;;;;1999.90;999.90;;;4.70;99.90;;;;;;5073966;28;20423;-69
2022/12/27 04:38:44;;;;;;;1999.90;999.90;;;4.70;99.90;;;;;;5074494;28;20454;-71
2022/12/27 04:55:03;;;;;;;1999.90;999.90;;;4.20;99.90;;;;;;5075963;28;20426;-70
2022/12/27 04:57:31;;;;;;;1999.90;999.90;;;4.70;99.90;;;;;;5081919;28;20429;-70
2022/12/27 05:02:42;;;;;;;1999.90;999.90;;;4.70;99.90;;;;;;5080386;28;21078;-70
2022/12/27 05:05:09;;;;;;;1999.90;999.90;;;4.70;99.90;;;;;;5081860;28;20432;-70
2022/12/27 05:15:52;;;;;;;1999.90;999.90;;;4.80;99.90;;;;;;5080811;28;20424;-71
2022/12/27 05:18:19;;;;;;;1999.90;999.90;;;4.80;99.90;;;;;;5078214;28;20504;-70
2022/12/27 05:20:45;;;;;;;1999.90;999.90;;;4.70;99.90;;;;;;5080112;28;20986;-70
2022/12/27 05:25:56;;;;;;;1999.90;999.90;;;4.80;99.90;;;;;;5072752;28;20433;-70
2022/12/27 05:28:24;;;;;;;1999.90;999.90;;;4.70;99.90;;;;;;5085192;28;20495;-69
2022/12/27 05:30:51;;;;;;;1999.90;999.90;;;4.70;99.90;;;;;;5080510;28;20429;-70
2022/12/27 05:33:17;;;;;;;1999.90;999.90;;;4.80;99.90;;;;;;5077390;28;20435;-69
2022/12/27 05:35:44;;;;;;;1999.90;999.90;;;4.80;99.90;;;;;;5077711;28;20417;-70
2022/12/27 05:38:11;;;;;;;1999.90;999.90;;;4.80;99.90;;;;;;5077403;28;20434;-70
2022/12/27 05:40:37;;;;;;;1999.90;999.90;;;4.90;99.90;;;;;;5083811;28;20439;-70
2022/12/27 05:43:04;;;;;;;1999.90;999.90;;;5.00;99.90;;;;;;5084109;28;20433;-69
2022/12/27 05:45:33;;;;;;;1999.90;999.90;;;5.00;99.90;;;;;;5082450;28;20505;-69
2022/12/27 05:48:00;;;;;;;1999.90;999.90;;;4.90;99.90;;;;;;5079784;28;20487;-69
2022/12/27 05:50:27;;;;;;;1999.90;999.90;;;5.00;99.90;;;;;;5081832;28;20508;-69
2022/12/27 05:52:53;;;;;;;1999.90;999.90;;;5.10;99.90;;;;;;5084360;28;20426;-68
2022/12/27 05:55:20;;;;;;;1999.90;999.90;;;5.10;99.90;;;;;;5079051;28;20479;-69
2022/12/27 05:57:47;;;;;;;1999.90;999.90;;;5.10;99.90;;;;;;5080921;28;20430;-68
2022/12/27 06:00:14;;;;;;;1999.90;999.90;;;5.20;99.90;;;;;;5082800;28;20481;-68
2022/12/27 06:02:42;;;;;;;1999.90;999.90;;;5.30;99.90;;;;;;5084794;28;20483;-68
2022/12/27 06:05:09;;;;;;;1999.90;999.90;;;5.20;99.90;;;;;;5084759;28;20433;-69
2022/12/27 06:07:37;;;;;;;1999.90;999.90;;;5.20;99.90;;;;;;5085313;28;20792;-69
2022/12/27 06:10:04;;;;;;;1999.90;999.90;;;5.20;99.90;;;;;;5086161;28;20431;-70
2022/12/27 06:12:31;;;;;;;1999.90;999.90;;;5.20;99.90;;;;;;5087274;28;20888;-71
2022/12/27 06:14:58;;;;;;;1999.90;999.90;;;5.20;99.90;;;;;;5083123;28;20433;-67
2022/12/27 06:17:24;;;;;;;1999.90;999.90;;;5.20;99.90;;;;;;5078403;28;20431;-70
2022/12/27 06:19:52;;;;;;;1999.90;999.90;;;5.30;99.90;;;;;;5087045;28;20456;-70
2022/12/27 06:22:19;;;;;;;1999.90;999.90;;;5.30;99.90;;;;;;5096838;28;20428;-71
2022/12/27 06:24:45;;;;;;;1999.90;999.90;;;5.40;99.90;;;;;;5098732;28;20433;-70
2022/12/27 06:27:12;;;;;;;1999.90;999.90;;;5.40;99.90;;;;;;5093311;28;20429;-70
2022/12/27 06:29:39;;;;;;;1999.90;999.90;;;5.30;99.90;;;;;;5091266;28;20459;-71
2022/12/27 06:32:05;;;;;;;1999.90;999.90;;;5.30;99.90;;;;;;5082878;28;20431;-69
2022/12/27 06:34:32;;;;;;;1999.90;999.90;;;5.30;99.90;;;;;;5081990;28;20903;-69
2022/12/27 06:37:00;;;;;;;1999.90;999.90;;;5.30;99.90;;;;;;5079844;28;20438;-69
2022/12/27 06:39:27;;;;;;;1999.90;999.90;;;5.30;99.90;;;;;;5080772;28;20429;-69
2022/12/27 06:41:55;;;;;;;1999.90;999.90;;;5.20;99.90;;;;;;5080494;28;20445;-71
2022/12/27 06:44:21;;;;;;;1999.90;999.90;;;5.30;99.90;;;;;;5079710;28;20441;-69
2022/12/27 06:46:48;;;;;;;1999.90;999.90;;;5.40;99.90;;;;;;5081283;28;20426;-70
2022/12/27 06:49:15;;;;;;;1999.90;999.90;;;5.40;99.90;;;;;;5083168;28;20426;-69
2022/12/27 06:51:41;;;;;;;1999.90;999.90;;;5.40;99.90;;;;;;5085248;28;20434;-70
2022/12/27 06:54:09;;;;;;;1999.90;999.90;;;5.40;99.90;;;;;;5088112;28;20430;-70
2022/12/27 06:56:36;;;;;;;1999.90;999.90;;;5.50;99.90;;;;;;5084852;28;20994;-69
2022/12/27 06:59:03;;;;;;;1999.90;999.90;;;5.50;99.90;;;;;;5079911;28;20984;-69
2022/12/27 07:01:29;;;;;;;1999.90;999.90;;;5.50;99.90;;;;;;5085465;28;20455;-69
2022/12/27 07:03:58;;;;;;;1999.90;999.90;;;5.60;99.90;;;;;;5077327;28;20423;-69
2022/12/27 07:06:26;;;;;;;1999.90;999.90;;;5.60;99.90;;;;;;5082739;28;20430;-69
2022/12/27 07:08:53;;;;;;;1999.90;999.90;;;5.60;99.90;;;;;;5086814;28;20429;-68
2022/12/27 07:11:21;;;;;;;1999.90;999.90;;;5.60;99.90;;;;;;5087192;28;20433;-69
2022/12/27 07:13:50;;;;;;;1999.90;999.90;;;5.70;99.90;;;;;;5086211;28;20487;-67
2022/12/27 07:16:19;;;;;;;1999.90;999.90;;;5.60;99.90;;;;;;5081421;28;20481;-69
2022/12/27 07:18:46;;;;;;;1999.90;999.90;;;5.60;99.90;;;;;;5085695;28;20558;-70
2022/12/27 07:21:16;;;;;;;1999.90;999.90;;;5.60;99.90;;;;;;5084543;28;20479;-70
2022/12/27 07:23:43;;;;;;;1999.90;999.90;;;5.60;99.90;;;;;;5087062;28;21119;-70
2022/12/27 07:26:12;;;;;;;1999.90;999.90;;;5.50;99.90;;;;;;5083473;28;21074;-70
2022/12/27 07:28:40;;;;;;;1999.90;999.90;;;5.50;99.90;;;;;;5086434;28;20483;-70
2022/12/27 07:31:08;;;;;;;1999.90;999.90;;;5.50;99.90;;;;;;5083757;28;20445;-70
2022/12/27 07:33:35;;;;;;;1999.90;999.90;;;5.50;99.90;;;;;;5083507;28;20426;-70
2022/12/27 07:36:03;;;;;;;1999.90;999.90;;;5.50;99.90;;;;;;5082751;28;20434;-70
2022/12/27 07:38:29;;;;;;;1999.90;999.90;;;5.50;99.90;;;;;;5085205;28;20502;-69
2022/12/27 07:40:58;;;;;;;1999.90;999.90;;;5.40;99.90;;;;;;5083835;28;20507;-70
2022/12/27 07:43:25;;;;;;;1999.90;999.90;;;5.30;99.90;;;;;;5083717;28;20779;-69
2022/12/27 07:45:53;;;;;;;1999.90;999.90;;;5.40;99.90;;;;;;5082406;28;20430;-70
2022/12/27 07:48:20;;;;;;;1999.90;999.90;;;5.40;99.90;;;;;;5083768;28;20426;-69
2022/12/27 07:50:54;;;;;;;1999.90;999.90;;;5.40;99.90;;;;;;5081163;28;20427;-70
2022/12/27 07:53:20;;;;;;;1999.90;999.90;;;5.40;99.90;;;;;;5083544;28;20438;-68
2022/12/27 07:55:47;;;;;;;1999.90;999.90;;;5.30;99.90;;;;;;5085083;28;20452;-68
2022/12/27 07:58:14;;;;;;;1999.90;999.90;;;5.40;99.90;;;;;;5083752;28;20487;-69
2022/12/27 08:00:41;;;;;;;1999.90;999.90;;;5.30;99.90;;;;;;5086769;28;20429;-70
2022/12/27 08:03:09;;;;;;;1999.90;999.90;;;5.40;99.90;;;;;;5081884;28;20555;-69
2022/12/27 08:05:35;;;;;;;1999.90;999.90;;;5.40;99.90;;;;;;5080844;28;20625;-70
2022/12/27 08:08:03;;;;;;;1999.90;999.90;;;5.40;99.90;;;;;;5080610;28;20426;-70
2022/12/27 08:10:29;;;;;;;1999.90;999.90;;;5.50;99.90;;;;;;5088419;28;20778;-68
2022/12/27 08:12:56;;;;;;;1999.90;999.90;;;5.60;99.90;;;;;;5090697;28;20464;-69
2022/12/27 08:15:22;;;;;;;1999.90;999.90;;;5.70;99.90;;;;;;5090339;28;20916;-70
2022/12/27 08:17:49;;;;;;;1999.90;999.90;;;5.50;99.90;;;;;;5090360;28;20616;-69
2022/12/27 08:20:17;;;;;;;1999.90;999.90;;;5.40;99.90;;;;;;5088165;28;20447;-68
2022/12/27 08:22:44;;;;;;;1999.90;999.90;;;5.40;99.90;;;;;;5076108;28;20540;-69
2022/12/27 08:25:10;;;;;;;1999.90;999.90;;;5.20;99.90;;;;;;5075527;28;20417;-69
2022/12/27 08:27:37;;;;;;;1999.90;999.90;;;5.20;99.90;;;;;;5077975;28;21103;-68
2022/12/27 08:30:04;;;;;;;1999.90;999.90;;;5.20;99.90;;;;;;5080167;28;20480;-70
2022/12/27 08:32:31;;;;;;;1999.90;999.90;;;5.20;99.90;;;;;;5079032;28;20497;-69
2022/12/27 08:34:57;;;;;;;1999.90;999.90;;;5.20;99.90;;;;;;5080197;28;20433;-68
2022/12/27 08:37:25;;;;;;;1999.90;999.90;;;5.30;99.90;;;;;;5079652;28;20514;-72
2022/12/27 08:39:52;;;;;;;1999.90;999.90;;;5.40;99.90;;;;;;5075702;28;20937;-70
2022/12/27 08:42:19;;;;;;;1999.90;999.90;;;5.60;99.90;;;;;;5081324;28;20430;-70
2022/12/27 08:44:45;;;;;;;1999.90;999.90;;;5.70;99.90;;;;;;5081780;28;20498;-70
2022/12/27 08:47:12;;;;;;;1999.90;999.90;;;5.70;99.90;;;;;;5080096;28;20421;-69
2022/12/27 08:49:38;;;;;;;1999.90;999.90;;;5.80;99.90;;;;;;5080611;28;20438;-70
2022/12/27 08:52:05;;;;;;;1999.90;999.90;;;6.00;99.90;;;;;;5079766;28;20862;-69
2022/12/27 08:54:33;;;;;;;1999.90;999.90;;;5.90;99.90;;;;;;5075967;28;20434;-71
2022/12/27 08:57:00;;;;;;;1999.90;999.90;;;6.20;99.90;;;;;;5080412;28;20426;-70
2022/12/27 08:59:26;;;;;;;1999.90;999.90;;;6.20;99.90;;;;;;5082952;28;20917;-69
2022/12/27 09:01:53;;;;;;;1999.90;999.90;;;6.20;99.90;;;;;;5080021;28;20432;-68
2022/12/27 09:04:20;;;;;;;1999.90;999.90;;;6.20;99.90;;;;;;5080432;28;20433;-69
2022/12/27 09:06:46;;;;;;;1999.90;999.90;;;6.20;99.90;;;;;;5081390;28;20423;-69
2022/12/27 09:09:14;;;;;;;1999.90;999.90;;;6.20;99.90;;;;;;5075819;28;20457;-69
2022/12/27 09:11:41;;;;;;;1999.90;999.90;;;6.20;99.90;;;;;;5084013;28;20491;-70
2022/12/27 09:14:10;;;;;;;1999.90;999.90;;;6.20;99.90;;;;;;5077593;28;20586;-69
2022/12/27 09:16:36;;;;;;;1999.90;999.90;;;6.10;99.90;;;;;;5081459;28;20492;-70
2022/12/27 09:19:04;;;;;;;1999.90;999.90;;;6.30;99.90;;;;;;5078064;28;21024;-69
2022/12/27 09:21:32;;;;;;;1999.90;999.90;;;6.40;99.90;;;;;;5082679;28;21014;-69
2022/12/27 09:23:59;;;;;;;1999.90;999.90;;;6.70;99.90;;;;;;5073863;28;20435;-69
2022/12/27 09:26:28;;;;;;;1999.90;999.90;;;6.80;99.90;;;;;;5076596;28;20434;-69
2022/12/27 09:28:56;;;;;;;1999.90;999.90;;;6.70;99.90;;;;;;5078158;28;20502;-73
2022/12/27 09:31:24;;;;;;;1999.90;999.90;;;6.70;99.90;;;;;;5072709;28;20504;-70
2022/12/27 09:33:51;;;;;;;1999.90;999.90;;;6.70;99.90;;;;;;5075660;28;20455;-71
2022/12/27 09:36:20;;;;;;;1999.90;999.90;;;6.70;99.90;;;;;;5076171;28;20932;-69
2022/12/27 09:38:47;;;;;;;1999.90;999.90;;;6.70;99.90;;;;;;5078393;28;20449;-73
2022/12/27 09:41:21;;;;;;;1999.90;999.90;;;6.80;99.90;;;;;;5081471;28;20896;-73
2022/12/27 09:43:56;;;;;;;1999.90;999.90;;;6.70;99.90;;;;;;5079749;28;20447;-71
2022/12/27 09:46:28;;;;;;;1999.90;999.90;;;6.90;99.90;;;;;;5084627;28;20428;-73
2022/12/27 09:48:56;;;;;;;1999.90;999.90;;;6.90;99.90;;;;;;5080591;28;20435;-70
2022/12/27 09:51:27;;;;;;;1999.90;999.90;;;6.70;99.90;;;;;;5080641;28;20437;-69
2022/12/27 09:54:01;;;;;;;1999.90;999.90;;;6.60;99.90;;;;;;5083613;28;20487;-69
2022/12/27 09:56:30;;;;;;;1999.90;999.90;;;6.50;99.90;;;;;;5080641;28;20475;-70
2022/12/27 09:59:02;;;;;;;1999.90;999.90;;;6.60;99.90;;;;;;5079478;28;20429;-69
2022/12/27 10:01:33;;;;;;;1999.90;999.90;;;6.60;99.90;;;;;;5082967;28;20430;-70
2022/12/27 10:04:01;;;;;;;1999.90;999.90;;;6.50;99.90;;;;;;5083212;28;20436;-70
2022/12/27 10:06:42;;;;;;;1999.90;999.90;;;6.60;99.90;;;;;;5083892;28;20426;-71
2022/12/27 10:09:25;;;;;;;1999.90;999.90;;;6.50;99.90;;;;;;5079647;28;20516;-72
2022/12/27 10:12:00;;;;;;;1999.90;999.90;;;6.60;99.90;;;;;;5086397;28;20426;-72
2022/12/27 10:14:43;;;;;;;1999.90;999.90;;;6.80;99.90;;;;;;5086446;28;20437;-69
2022/12/27 10:17:19;;;;;;;1999.90;999.90;;;6.70;99.90;;;;;;5082659;28;20858;-69
2022/12/27 10:19:55;;;;;;;1999.90;999.90;;;6.80;99.90;;;;;;5084083;28;20421;-68
2022/12/27 10:22:29;;;;;;;1999.90;999.90;;;7.00;99.90;;;;;;5081569;28;20425;-73
2022/12/27 10:25:02;;;;;;;1999.90;999.90;;;7.10;99.90;;;;;;5080498;28;20447;-72
2022/12/27 10:27:29;;;;;;;1999.90;999.90;;;7.20;99.90;;;;;;5084880;28;20422;-72
2022/12/27 10:29:57;;;;;;;1999.90;999.90;;;7.20;99.90;;;;;;5092445;28;20414;-72
2022/12/27 10:32:26;;;;;;;1999.90;999.90;;;7.30;99.90;;;;;;5092482;28;20420;-70
2022/12/27 10:34:55;;;;;;;1999.90;999.90;;;7.50;99.90;;;;;;5091399;28;20417;-70
2022/12/27 10:37:22;;;;;;;1999.90;999.90;;;7.40;99.90;;;;;;5088499;28;20506;-70
2022/12/27 10:39:49;;;;;;;1999.90;999.90;;;7.50;99.90;;;;;;5086688;28;20938;-71
2022/12/27 10:42:30;;;;;;;1999.90;999.90;;;7.50;99.90;;;;;;5085000;28;20918;-70
2022/12/27 10:45:24;;;;;;;1999.90;999.90;;;7.60;99.90;;;;;;5083734;28;20448;-71
2022/12/27 10:47:53;;;;;;;1999.90;999.90;;;7.60;99.90;;;;;;5079398;28;20983;-70
2022/12/27 10:50:22;;;;;;;1999.90;999.90;;;7.80;99.90;;;;;;5081273;28;20854;-72
2022/12/27 10:52:49;;;;;;;1999.90;999.90;;;7.80;99.90;;;;;;5083365;28;20502;-71
2022/12/27 10:55:32;;;;;;;1999.90;999.90;;;7.80;99.90;;;;;;5084879;28;20475;-69
2022/12/27 10:57:59;;;;;;;1999.90;999.90;;;7.80;99.90;;;;;;5083018;28;20430;-71
2022/12/27 11:00:26;;;;;;;1999.90;999.90;;;7.60;99.90;;;;;;5086600;28;20434;-72
2022/12/27 11:02:56;;;;;;;1999.90;999.90;;;7.60;99.90;;;;;;5083889;28;20475;-70
2022/12/27 11:05:24;;;;;;;1999.90;999.90;;;7.60;99.90;;;;;;5082051;28;20839;-74
2022/12/27 11:07:51;;;;;;;1999.90;999.90;;;7.50;99.90;;;;;;5082789;28;20429;-71
2022/12/27 11:10:22;;;;;;;1999.90;999.90;;;7.70;99.90;;;;;;5084398;28;20433;-72
2022/12/27 11:12:56;;;;;;;1999.90;999.90;;;7.80;99.90;;;;;;5076539;28;20443;-72
2022/12/27 11:15:24;;;;;;;1999.90;999.90;;;7.80;99.90;;;;;;5082209;28;20466;-69
2022/12/27 11:17:54;;;;;;;1999.90;999.90;;;7.80;99.90;;;;;;5075628;28;20456;-72
2022/12/27 11:20:23;;;;;;;1999.90;999.90;;;7.90;99.90;;;;;;5080992;28;20489;-71
2022/12/27 11:22:53;;;;;;;1999.90;999.90;;;7.90;99.90;;;;;;5083818;28;20486;-72
2022/12/27 11:25:21;;;;;;;1999.90;999.90;;;8.00;99.90;;;;;;5079692;28;20465;-69
2022/12/27 11:27:50;;;;;;;1999.90;999.90;;;8.20;99.90;;;;;;5088199;28;20559;-70
2022/12/27 11:30:23;;;;;;;1999.90;999.90;;;8.40;99.90;;;;;;5091174;28;20467;-70
2022/12/27 11:32:50;;;;;;;1999.90;999.90;;;8.40;99.90;;;;;;5082634;28;20426;-70
2022/12/27 11:35:20;;;;;;;1999.90;999.90;;;8.50;99.90;;;;;;5089657;28;20430;-70
2022/12/27 11:37:48;;;;;;;1999.90;999.90;;;8.40;99.90;;;;;;5085678;28;20431;-69
2022/12/27 11:40:23;;;;;;;1999.90;999.90;;;8.40;99.90;;;;;;5090978;28;20448;-69
2022/12/27 11:42:55;;;;;;;1999.90;999.90;;;8.60;99.90;;;;;;5089267;28;20475;-71
2022/12/27 11:45:26;;;;;;;1999.90;999.90;;;8.30;99.90;;;;;;5087382;28;20426;-69
2022/12/27 11:47:59;;;;;;;1999.90;999.90;;;8.10;99.90;;;;;;5087842;28;20430;-72
2022/12/27 11:50:47;;;;;;;1999.90;999.90;;;8.00;99.90;;;;;;5082696;28;20433;-69
2022/12/27 11:53:46;;;;;;;1999.90;999.90;;;8.00;99.90;;;;;;5081271;28;20487;-72
2022/12/27 11:56:19;;;;;;;1999.90;999.90;;;8.00;99.90;;;;;;5078530;28;20437;-71
2022/12/27 11:59:16;;;;;;;1999.90;999.90;;;8.00;99.90;;;;;;5079179;28;20493;-71
2022/12/27 12:02:02;;;;;;;1999.90;999.90;;;8.00;99.90;;;;;;5082019;28;20429;-72
2022/12/27 12:05:06;;;;;;;1999.90;999.90;;;7.90;99.90;;;;;;5081424;28;20435;-71
2022/12/27 12:07:50;;;;;;;1999.90;999.90;;;7.90;99.90;;;;;;5081219;28;21198;-69
2022/12/27 12:10:29;;;;;;;1999.90;999.90;;;7.90;99.90;;;;;;5081144;28;20437;-68
2022/12/27 12:13:23;;;;;;;1999.90;999.90;;;7.90;99.90;;;;;;5079384;28;20434;-70
2022/12/27 12:16:14;;;;;;;1999.90;999.90;;;7.70;99.90;;;;;;5075581;28;20442;-70
2022/12/27 12:18:57;;;;;;;1999.90;999.90;;;7.40;99.90;;;;;;5083080;28;20839;-71
2022/12/27 12:21:25;;;;;;;1999.90;999.90;;;7.20;99.90;;;;;;5081288;28;20501;-71
2022/12/27 12:24:28;;;;;;;1999.90;999.90;;;7.10;99.90;;;;;;5079861;28;20952;-71
2022/12/27 12:27:15;;;;;;;1999.90;999.90;;;7.00;99.90;;;;;;5049747;28;20917;-71
2022/12/27 12:30:03;;;;;;;1999.90;999.90;;;7.00;99.90;;;;;;5079038;28;20828;-71
2022/12/27 12:32:42;;;;;;;1999.90;999.90;;;7.00;99.90;;;;;;5073467;28;20484;-72
2022/12/27 12:35:54;;;;;;;1999.90;999.90;;;7.10;99.90;;;;;;5081868;28;20413;-72
2022/12/27 12:38:22;;;;;;;1999.90;999.90;;;7.10;99.90;;;;;;5046547;28;20423;-71
2022/12/27 12:41:08;;;;;;;1999.90;999.90;;;7.00;99.90;;;;;;5073904;28;20491;-71
2022/12/27 12:43:55;;;;;;;1999.90;999.90;;;7.00;99.90;;;;;;5081600;28;20431;-71
2022/12/27 12:46:30;;;;;;;1999.90;999.90;;;7.10;99.90;;;;;;5076673;28;20435;-68
2022/12/27 12:49:35;;;;;;;1999.90;999.90;;;7.20;99.90;;;;;;5076501;28;20423;-70
2022/12/27 12:52:19;;;;;;;1999.90;999.90;;;7.30;99.90;;;;;;5075358;28;20477;-71
2022/12/27 12:55:00;;;;;;;1999.90;999.90;;;7.30;99.90;;;;;;5076867;28;20434;-71
2022/12/27 12:57:39;;;;;;;1999.90;999.90;;;7.30;99.90;;;;;;5080786;28;20976;-71
2022/12/27 13:00:21;;;;;;;1999.90;999.90;;;7.30;99.90;;;;;;5090179;28;20475;-72
2022/12/27 13:03:14;;;;;;;1999.90;999.90;;;7.40;99.90;;;;;;5078528;28;20440;-71
2022/12/27 13:05:46;;;;;;;1999.90;999.90;;;7.50;99.90;;;;;;5054259;28;20886;-71
2022/12/27 13:08:23;;;;;;;1999.90;999.90;;;7.50;99.90;;;;;;5081782;28;20479;-69
2022/12/27 13:11:36;;;;;;;1999.90;999.90;;;7.50;99.90;;;;;;5077675;28;20429;-69
2022/12/27 13:14:27;;;;;;;1999.90;999.90;;;7.50;99.90;;;;;;5030957;28;20818;-69
2022/12/27 13:17:03;;;;;;;1999.90;999.90;;;7.40;99.90;;;;;;5019774;28;20924;-68
2022/12/27 13:19:50;;;;;;;1999.90;999.90;;;7.30;99.90;;;;;;5069747;28;20984;-69
2022/12/27 13:22:25;;;;;;;1999.90;999.90;;;7.20;99.90;;;;;;5092238;28;20436;-70
2022/12/27 13:25:06;;;;;;;1999.90;999.90;;;7.20;99.90;;;;;;5081992;28;20495;-70
2022/12/27 13:27:37;;;;;;;1999.90;999.90;;;7.00;99.90;;;;;;5080157;28;21111;-72
2022/12/27 13:30:18;;;;;;;1999.90;999.90;;;7.00;99.90;;;;;;5079683;28;20434;-71
2022/12/27 13:33:01;;;;;;;1999.90;999.90;;;7.00;99.90;;;;;;5079291;28;20483;-70
2022/12/27 13:35:37;;;;;;;1999.90;999.90;;;7.00;99.90;;;;;;5083512;28;20430;-69
2022/12/27 13:38:21;;;;;;;1999.90;999.90;;;7.00;99.90;;;;;;5082736;28;20564;-72
2022/12/27 13:41:10;;;;;;;1999.90;999.90;;;7.00;99.90;;;;;;5083407;28;20870;-71
2022/12/27 13:43:53;;;;;;;1999.90;999.90;;;6.90;99.90;;;;;;5082761;28;20431;-69
2022/12/27 13:46:34;;;;;;;1999.90;999.90;;;6.80;99.90;;;;;;5083921;28;20490;-69
2022/12/27 13:49:29;;;;;;;1999.90;999.90;;;6.70;99.90;;;;;;5086605;28;20490;-70
2022/12/27 13:52:08;;;;;;;1999.90;999.90;;;6.80;99.90;;;;;;5083055;28;20422;-72
2022/12/27 13:55:04;;;;;;;1999.90;999.90;;;6.90;99.90;;;;;;5086963;28;20875;-72
2022/12/27 13:57:56;;;;;;;1999.90;999.90;;;7.00;99.90;;;;;;5087089;28;20434;-71
2022/12/27 14:00:26;;;;;;;1999.90;999.90;;;6.90;99.90;;;;;;5085422;28;20944;-68
2022/12/27 14:03:27;;;;;;;1999.90;999.90;;;6.90;99.90;;;;;;5081148;28;20517;-68
2022/12/27 14:06:20;;;;;;;1999.90;999.90;;;7.00;99.90;;;;;;5066152;28;20498;-69